createdAt,value
2018-01-27T00:03:33.667Z,58.60
2018-01-27T00:09:38.017Z,59.00
2018-01-27T00:15:42.000Z,58.90
2018-01-27T00:21:46.771Z,57.80
2018-01-27T00:27:51.973Z,57.70
2018-01-27T00:33:55.996Z,57.70
2018-01-27T00:39:59.868Z,57.30
2018-01-27T00:46:03.804Z,56.80
2018-01-27T00:52:08.705Z,57.40
2018-01-27T00:58:12.660Z,57.30
2018-01-27T01:04:17.168Z,57.60
2018-01-27T01:10:21.872Z,58.70
2018-01-27T01:16:25.790Z,58.70
2018-01-27T01:22:29.673Z,58.70
2018-01-27T01:28:33.681Z,59.30
2018-01-27T01:34:37.643Z,59.50
2018-01-27T01:40:41.587Z,58.70
2018-01-27T01:46:45.692Z,58.60
2018-01-27T01:52:49.568Z,58.80
2018-01-27T01:58:53.737Z,59.10
2018-01-27T02:04:57.884Z,59.40
2018-01-27T02:11:02.857Z,60.50
2018-01-27T02:17:07.497Z,60.60
2018-01-27T02:23:11.459Z,60.60
2018-01-27T02:29:15.631Z,61.30
2018-01-27T02:35:19.714Z,61.90
2018-01-27T02:41:23.674Z,60.70
2018-01-27T02:47:27.694Z,60.90
2018-01-27T02:53:31.613Z,60.50
2018-01-27T02:59:35.539Z,60.80
2018-01-27T03:05:40.486Z,61.50
2018-01-27T03:11:44.640Z,61.40
2018-01-27T03:17:48.786Z,62.10
2018-01-27T03:23:52.851Z,62.20
2018-01-27T03:29:56.770Z,61.80
2018-01-27T03:36:00.698Z,61.50
2018-01-27T03:42:04.764Z,61.30
2018-01-27T03:48:08.701Z,60.70
2018-01-27T03:54:12.727Z,61.40
2018-01-27T04:00:16.906Z,61.40
2018-01-27T04:06:21.721Z,61.60
2018-01-27T04:12:25.723Z,61.60
2018-01-27T04:18:29.777Z,61.30
2018-01-27T04:24:33.873Z,62.00
2018-01-27T04:30:37.774Z,61.90
2018-01-27T04:36:41.660Z,61.80
2018-01-27T04:42:45.763Z,61.00
2018-01-27T04:48:49.810Z,61.30
2018-01-27T04:54:54.059Z,61.30
2018-01-27T05:00:57.968Z,61.00
2018-01-27T05:07:01.974Z,60.90
2018-01-27T05:13:06.025Z,61.30
2018-01-27T05:19:10.098Z,62.00
2018-01-27T05:25:13.944Z,59.70
2018-01-27T05:31:18.119Z,60.00
2018-01-27T05:37:22.007Z,60.30
2018-01-27T05:43:26.479Z,60.30
2018-01-27T05:49:31.567Z,60.20
2018-01-27T05:55:35.808Z,60.10
2018-01-27T06:01:40.684Z,59.60
2018-01-27T06:07:44.730Z,59.60
2018-01-27T06:13:49.400Z,58.80
2018-01-27T06:19:53.424Z,58.30
2018-01-27T06:25:58.482Z,57.40
2018-01-27T06:32:02.621Z,57.30
2018-01-27T06:38:07.450Z,57.30
2018-01-27T06:44:12.512Z,57.40
2018-01-27T06:50:16.874Z,56.60
2018-01-27T06:56:20.892Z,55.30
2018-01-27T07:02:25.002Z,54.20
2018-01-27T07:08:30.344Z,53.80
2018-01-27T07:14:34.728Z,53.20
2018-01-27T07:20:38.800Z,53.00
2018-01-27T07:26:43.924Z,52.30
2018-01-27T07:32:49.686Z,52.10
2018-01-27T07:38:53.713Z,52.00
2018-01-27T07:44:58.598Z,50.90
2018-01-27T07:51:02.288Z,50.90
2018-01-27T07:57:05.868Z,49.90
2018-01-27T08:03:09.453Z,49.40
2018-01-27T08:09:12.893Z,49.00
2018-01-27T08:15:16.393Z,49.40
2018-01-27T08:21:20.159Z,49.10
2018-01-27T08:27:24.080Z,48.40
2018-01-27T08:33:29.132Z,48.10
2018-01-27T08:39:34.291Z,48.10
2018-01-27T08:45:38.117Z,47.70
2018-01-27T08:51:41.649Z,47.20
2018-01-27T08:57:46.705Z,46.80
2018-01-27T09:03:50.333Z,46.80
2018-01-27T09:09:54.103Z,46.50
2018-01-27T09:15:59.648Z,46.80
2018-01-27T09:22:03.141Z,45.90
2018-01-27T09:28:06.958Z,46.20
2018-01-27T09:34:10.376Z,45.50
2018-01-27T09:40:15.142Z,44.80
2018-01-27T09:46:19.986Z,44.60
2018-01-27T09:52:25.166Z,44.60
2018-01-27T09:58:30.816Z,44.10
2018-01-27T10:04:34.462Z,44.10
2018-01-27T10:10:40.017Z,43.90
2018-01-27T10:16:45.282Z,42.60
2018-01-27T10:22:49.309Z,41.90
2018-01-27T10:28:53.132Z,41.80
2018-01-27T10:34:57.691Z,40.50
2018-01-27T10:41:01.220Z,40.50
2018-01-27T10:47:05.548Z,41.80
2018-01-27T10:53:09.073Z,40.80
2018-01-27T10:59:12.891Z,40.60
2018-01-27T11:05:18.987Z,40.70
2018-01-27T11:11:23.725Z,38.70
2018-01-27T11:17:27.498Z,38.60
2018-01-27T11:23:31.195Z,38.80
2018-01-27T11:29:36.052Z,36.80
2018-01-27T11:35:39.968Z,37.10
2018-01-27T11:41:43.915Z,35.70
2018-01-27T11:47:47.543Z,33.80
2018-01-27T11:53:50.947Z,30.00
2018-01-27T11:59:54.482Z,22.00
2018-01-27T12:05:58.089Z,18.60
2018-01-27T12:12:02.094Z,17.90
2018-01-27T12:18:05.934Z,17.90
2018-01-27T12:24:10.251Z,17.40
2018-01-27T12:30:15.619Z,19.20
2018-01-27T12:36:19.801Z,19.20
2018-01-27T12:42:23.999Z,18.40
